Back to Top

Language: 

My Weather Underground Personal Weather Station Historical Data with Graphs...

Delerius Weather Station Historical Data
Daily Summary for June 5, 2017 Units:  Metric    English   Both
« Previous Day
Next Day »
Daily Weekly Monthly Yearly Custom
  High: Low: Average:
Temperature: 15 °C 8.9 °C 12.1 °C
Dew Point: 13.8 °C 6.3 °C 10.2 °C
Humidity: 95 % 78 % 89 %
Wind Speed: 27.4 km/h 0 km/h 12.9 km/h
Wind Gust: 53.1 km/h - -
Wind:- - South
Pressure: 1011.1 hPa 990.7 hPa -
Precipitation: 8.13 mm    
Historical Graphs
 
 
Tabular Data for June 5, 2017
Time Temperature Dew Point Pressure Wind Wind Speed Wind Gust Humidity Rainfall Rate (Hourly) solar Conditions
00:01 10.1 °C 6.6 °C 1011.1 hPa West 1.6 km/h 6.4 km/h 79 % 0 mm 0 W/m2
00:06 10.1 °C 6.4 °C 1011.1 hPa West 1.6 km/h 8 km/h 78 % 0 mm 0 W/m2
00:11 10.1 °C 6.4 °C 1011.1 hPa WSW 1.6 km/h 8 km/h 78 % 0 mm 0 W/m2
00:16 10.1 °C 6.4 °C 1011.1 hPa WSW 1.6 km/h 4.8 km/h 78 % 0 mm 0 W/m2
00:21 10.2 °C 6.6 °C 1011.1 hPa Calm   3.2 km/h 78 % 0 mm 0 W/m2
00:26 10.2 °C 6.6 °C 1011.1 hPa Calm   3.2 km/h 78 % 0 mm 0 W/m2
00:31 10.2 °C 6.6 °C 1011.1 hPa Calm   3.2 km/h 78 % 0 mm 0 W/m2
00:36 10.2 °C 6.6 °C 1011.1 hPa Calm     78 % 0 mm 0 W/m2
00:41 10.2 °C 6.6 °C 1011.1 hPa Calm   3.2 km/h 78 % 0 mm 0 W/m2
00:46 10.2 °C 6.6 °C 1010.7 hPa Calm   3.2 km/h 78 % 0 mm 0 W/m2
00:51 10.1 °C 6.4 °C 1010.7 hPa Calm   1.6 km/h 78 % 0 mm 0 W/m2
00:56 10.1 °C 6.4 °C 1010.7 hPa Calm   3.2 km/h 78 % 0 mm 0 W/m2
01:01 10.1 °C 6.4 °C 1010.7 hPa Calm   3.2 km/h 78 % 0 mm 0 W/m2
01:06 10 °C 6.3 °C 1010.7 hPa Calm   3.2 km/h 78 % 0 mm 0 W/m2
01:11 10 °C 6.5 °C 1010.7 hPa Calm   3.2 km/h 79 % 0 mm 0 W/m2
01:16 9.9 °C 6.4 °C 1010.7 hPa Calm   6.4 km/h 79 % 0 mm 0 W/m2
01:21 9.9 °C 6.4 °C 1010.7 hPa Calm   6.4 km/h 79 % 0 mm 0 W/m2
01:26 9.8 °C 6.5 °C 1010.7 hPa Calm     80 % 0 mm 0 W/m2
01:31 9.7 °C 6.4 °C 1010.4 hPa Calm     80 % 0 mm 0 W/m2
01:36 9.6 °C 6.3 °C 1010.4 hPa Calm     80 % 0 mm 0 W/m2
01:41 9.6 °C 6.5 °C 1010.4 hPa Calm   3.2 km/h 81 % 0 mm 0 W/m2
01:46 9.5 °C 6.4 °C 1010.4 hPa Calm   3.2 km/h 81 % 0 mm 0 W/m2
01:51 9.5 °C 6.6 °C 1010.4 hPa Calm   3.2 km/h 82 % 0 mm 0 W/m2
01:56 9.6 °C 6.8 °C 1010.4 hPa Calm   1.6 km/h 83 % 0 mm 0 W/m2
02:01 9.5 °C 6.8 °C 1010 hPa Calm   1.6 km/h 83 % 0 mm 0 W/m2
02:06 9.4 °C 6.7 °C 1010 hPa Calm   3.2 km/h 83 % 0 mm 0 W/m2
02:12 9.3 °C 6.6 °C 1010 hPa WSW 1.6 km/h 3.2 km/h 83 % 0 mm 0 W/m2
02:17 9.2 °C 6.4 °C 1010 hPa Calm   3.2 km/h 83 % 0 mm 0 W/m2
02:22 9.2 °C 6.4 °C 1009.7 hPa Calm   1.6 km/h 83 % 0 mm 0 W/m2
02:27 9.1 °C 6.4 °C 1009.7 hPa Calm   3.2 km/h 83 % 0 mm 0 W/m2
02:32 9.1 °C 6.4 °C 1009.7 hPa Calm   3.2 km/h 83 % 0 mm 0 W/m2
02:37 9.1 °C 6.4 °C 1009.7 hPa Calm   1.6 km/h 83 % 0 mm 0 W/m2
02:42 9 °C 6.3 °C 1009.7 hPa Calm   1.6 km/h 83 % 0 mm 0 W/m2
02:47 8.9 °C 6.3 °C 1009.7 hPa Calm   3.2 km/h 84 % 0 mm 0 W/m2
02:52 8.9 °C 6.5 °C 1009.7 hPa SSE 3.2 km/h 9.7 km/h 85 % 0 mm 0 W/m2
02:57 9 °C 6.6 °C 1009.4 hPa SSE 4.8 km/h 9.7 km/h 85 % 0 mm 0 W/m2
03:02 9.2 °C 6.8 °C 1009.4 hPa SE 3.2 km/h 9.7 km/h 85 % 0 mm 0 W/m2
03:07 9.4 °C 6.8 °C 1009.4 hPa South 3.2 km/h 11.3 km/h 84 % 0 mm 0 W/m2
03:12 9.5 °C 6.8 °C 1009.4 hPa South 1.6 km/h 11.3 km/h 83 % 0 mm 0 W/m2
03:17 9.5 °C 6.8 °C 1009.4 hPa Calm   1.6 km/h 83 % 0 mm 0 W/m2
03:22 9.4 °C 6.7 °C 1009.4 hPa Calm   8 km/h 83 % 0 mm 0 W/m2
03:27 9.5 °C 6.8 °C 1009.4 hPa SSE 1.6 km/h 11.3 km/h 83 % 0 mm 0 W/m2
03:32 9.6 °C 6.8 °C 1009.4 hPa SSE 3.2 km/h 12.9 km/h 83 % 0 mm 0 W/m2
03:37 9.7 °C 6.9 °C 1009 hPa SSE 3.2 km/h 12.9 km/h 83 % 0 mm 0 W/m2
03:42 9.7 °C 6.9 °C 1009 hPa SSE 3.2 km/h 11.3 km/h 83 % 0 mm 0 W/m2
03:47 9.7 °C 6.9 °C 1009 hPa SSE 3.2 km/h 11.3 km/h 83 % 0 mm 0 W/m2
03:52 9.7 °C 6.9 °C 1008.7 hPa SSE 3.2 km/h 9.7 km/h 83 % 0 mm 0 W/m2
03:57 9.7 °C 6.9 °C 1008.7 hPa SSE 4.8 km/h 11.3 km/h 83 % 0 mm 0 W/m2
04:02 9.7 °C 6.9 °C 1008.7 hPa SSE 3.2 km/h 11.3 km/h 83 % 0 mm 0 W/m2
04:07 9.6 °C 6.8 °C 1008.7 hPa South 1.6 km/h 9.7 km/h 83 % 0 mm 0 W/m2
04:15 9.6 °C 7 °C 1008.7 hPa SSE 4.8 km/h 11.3 km/h 84 % 0 mm 0 W/m2
04:20 9.6 °C 6.8 °C 1008.4 hPa SSE 3.2 km/h 9.7 km/h 83 % 0 mm 0 W/m2
04:25 9.5 °C 6.9 °C 1008.4 hPa SE 1.6 km/h 9.7 km/h 84 % 0 mm 0 W/m2
04:30 9.5 °C 6.9 °C 1008.4 hPa SE 4.8 km/h 9.7 km/h 84 % 0 mm 0 W/m2
04:35 9.4 °C 6.8 °C 1008.4 hPa SE 6.4 km/h 11.3 km/h 84 % 0 mm 0 W/m2
04:40 9.4 °C 6.8 °C 1008.4 hPa SSE 6.4 km/h 11.3 km/h 84 % 0 mm 0 W/m2
04:45 9.4 °C 6.8 °C 1008 hPa SSE 6.4 km/h 12.9 km/h 84 % 0 mm 5 W/m2
04:50 9.4 °C 6.8 °C 1008 hPa SE 4.8 km/h 12.9 km/h 84 % 0 mm 7 W/m2
04:55 9.4 °C 6.8 °C 1007.7 hPa ESE 4.8 km/h 11.3 km/h 84 % 0 mm 9 W/m2
05:00 9.4 °C 6.8 °C 1007.7 hPa ESE 4.8 km/h 11.3 km/h 84 % 0 mm 12 W/m2
05:05 9.4 °C 7 °C 1007.7 hPa ESE 3.2 km/h 11.3 km/h 85 % 0 mm 16 W/m2
05:10 9.4 °C 7 °C 1007.3 hPa East 3.2 km/h 9.7 km/h 85 % 0 mm 16 W/m2
05:11 9.4 °C 7 °C 1007.3 hPa East 3.2 km/h 9.7 km/h 85 % 0 mm 16 W/m2
05:16 9.3 °C 6.9 °C 1007.3 hPa East 3.2 km/h 11.3 km/h 85 % 0 mm 14 W/m2
05:21 9.3 °C 6.9 °C 1007.3 hPa East 3.2 km/h 11.3 km/h 85 % 0 mm 14 W/m2
05:26 9.2 °C 6.8 °C 1007.3 hPa ENE 3.2 km/h 9.7 km/h 85 % 0 mm 14 W/m2
05:31 9.2 °C 7 °C 1007.3 hPa East 3.2 km/h 9.7 km/h 86 % 0 mm 16 W/m2
05:36 9.2 °C 7 °C 1007.3 hPa SE 3.2 km/h 11.3 km/h 86 % 0 mm 21 W/m2
05:41 9.2 °C 7 °C 1007.3 hPa SE 6.4 km/h 16.1 km/h 86 % 0 mm 35 W/m2
05:43 9.2 °C 7 °C 1007.3 hPa SE 8 km/h 16.1 km/h 86 % 0 mm 42 W/m2
05:48 9.3 °C 7.1 °C 1007 hPa SE 6.4 km/h 16.1 km/h 86 % 0 mm 56 W/m2
05:53 9.4 °C 7.2 °C 1007 hPa SSE 6.4 km/h 14.5 km/h 86 % 0 mm 88 W/m2
05:59 9.4 °C 7.2 °C 1006.7 hPa SSE 9.7 km/h 20.9 km/h 86 % 0 mm 134 W/m2
06:04 9.6 °C 7.4 °C 1006.7 hPa SSE 11.3 km/h 22.5 km/h 86 % 0 mm 172 W/m2
06:09 9.8 °C 7.6 °C 1006.7 hPa SSE 11.3 km/h 22.5 km/h 86 % 0 mm 125 W/m2
06:14 9.9 °C 7.5 °C 1006.7 hPa SSE 11.3 km/h 24.1 km/h 85 % 0 mm 100 W/m2
06:19 10.1 °C 7.7 °C 1006.7 hPa SSE 11.3 km/h 24.1 km/h 85 % 0 mm 81 W/m2
06:24 10 °C 7.6 °C 1006.7 hPa SSE 11.3 km/h 22.5 km/h 85 % 0 mm 72 W/m2
06:29 9.9 °C 7.5 °C 1006.3 hPa SSE 11.3 km/h 24.1 km/h 85 % 0 mm 69 W/m2
06:34 10 °C 7.6 °C 1006.3 hPa SSE 12.9 km/h 24.1 km/h 85 % 0 mm 79 W/m2
06:39 10 °C 7.6 °C 1006.3 hPa SSE 12.9 km/h 19.3 km/h 85 % 0 mm 88 W/m2
06:44 10.1 °C 7.7 °C 1006.3 hPa SSE 12.9 km/h 22.5 km/h 85 % 0 mm 90 W/m2
06:49 10.1 °C 7.9 °C 1006.3 hPa SSE 14.5 km/h 22.5 km/h 86 % 0 mm 88 W/m2
06:54 10.2 °C 7.9 °C 1006.3 hPa South 12.9 km/h 22.5 km/h 86 % 0 mm 91 W/m2
06:59 10.3 °C 7.9 °C 1006.3 hPa South 12.9 km/h 25.7 km/h 85 % 0 mm 95 W/m2
07:04 10.4 °C 8.2 °C 1006 hPa South 12.9 km/h 25.7 km/h 86 % 0 mm 95 W/m2
07:09 10.6 °C 8.3 °C 1006 hPa SSE 12.9 km/h 22.5 km/h 86 % 0 mm 95 W/m2
07:14 10.7 °C 8.3 °C 1006 hPa SSE 12.9 km/h 24.1 km/h 85 % 0 mm 111 W/m2
07:19 10.8 °C 8.4 °C 1005.6 hPa SSE 12.9 km/h 25.7 km/h 85 % 0 mm 116 W/m2
07:24 10.8 °C 8.4 °C 1005.6 hPa SSE 14.5 km/h 25.7 km/h 85 % 0 mm 107 W/m2
07:29 10.9 °C 8.5 °C 1005.6 hPa SSE 12.9 km/h 25.7 km/h 85 % 0 mm 113 W/m2
07:34 11.1 °C 8.7 °C 1005.6 hPa SSE 12.9 km/h 22.5 km/h 85 % 0 mm 102 W/m2
07:39 11.2 °C 8.8 °C 1005.6 hPa SSE 12.9 km/h 22.5 km/h 85 % 0 mm 113 W/m2
07:44 11.3 °C 8.9 °C 1005.6 hPa SSE 11.3 km/h 22.5 km/h 85 % 0 mm 125 W/m2
07:49 11.4 °C 8.8 °C 1005.3 hPa SSE 11.3 km/h 22.5 km/h 84 % 0 mm 93 W/m2
07:54 11.5 °C 8.9 °C 1005.3 hPa SSE 11.3 km/h 25.7 km/h 84 % 0 mm 102 W/m2
07:59 11.6 °C 9 °C 1005.3 hPa SSE 12.9 km/h 25.7 km/h 84 % 0 mm 95 W/m2
08:04 11.7 °C 9.1 °C 1005.3 hPa SSE 12.9 km/h 30.6 km/h 84 % 0 mm 121 W/m2
08:09 11.8 °C 9 °C 1005.3 hPa South 14.5 km/h 30.6 km/h 83 % 0 mm 128 W/m2
08:14 11.9 °C 9.1 °C 1005.3 hPa South 12.9 km/h 20.9 km/h 83 % 0 mm 111 W/m2
08:19 12 °C 9.2 °C 1005 hPa SSW 12.9 km/h 37 km/h 83 % 0 mm 93 W/m2
08:24 12 °C 9.4 °C 1005 hPa SSW 16.1 km/h 37 km/h 84 % 0 mm 62 W/m2
08:29 11.8 °C 9.3 °C 1005 hPa SSW 17.7 km/h 37 km/h 85 % 0 mm 69 W/m2
08:35 11.7 °C 9.4 °C 1005 hPa SSW 19.3 km/h 37 km/h 86 % 0.25 mm 95 W/m2
08:40 11.6 °C 9.5 °C 1004.6 hPa SSW 17.7 km/h 37 km/h 87 % 0.25 mm 95 W/m2
08:45 11.5 °C 9.6 °C 1004.6 hPa SSW 16.1 km/h 32.2 km/h 88 % 0.25 mm 91 W/m2
08:50 11.4 °C 9.7 °C 1004.6 hPa SSW 19.3 km/h 35.4 km/h 89 % 0.25 mm 120 W/m2
08:55 11.4 °C 9.8 °C 1004.6 hPa SSW 16.1 km/h 35.4 km/h 90 % 0.51 mm 128 W/m2
09:00 11.4 °C 9.8 °C 1004.3 hPa SSW 14.5 km/h 29 km/h 90 % 0.51 mm 149 W/m2
09:05 11.6 °C 10.2 °C 1004.3 hPa SSW 14.5 km/h 24.1 km/h 91 % 0.51 mm 172 W/m2
09:10 11.6 °C 10.2 °C 1004.3 hPa SSW 14.5 km/h 33.8 km/h 91 % 0.51 mm 174 W/m2
09:15 11.7 °C 10.3 °C 1004.3 hPa SSW 16.1 km/h 33.8 km/h 91 % 0.51 mm 185 W/m2
09:20 11.8 °C 10.4 °C 1003.9 hPa South 16.1 km/h 33.8 km/h 91 % 0.51 mm 144 W/m2
09:25 11.9 °C 10.5 °C 1003.9 hPa South 17.7 km/h 35.4 km/h 91 % 0.51 mm 195 W/m2
09:30 12 °C 10.6 °C 1003.9 hPa SSW 19.3 km/h 45.1 km/h 91 % 0.25 mm 229 W/m2
09:35 12.1 °C 10.7 °C 1003.6 hPa SSW 19.3 km/h 45.1 km/h 91 % 0.25 mm 221 W/m2
09:40 12.2 °C 10.8 °C 1003.6 hPa SSW 20.9 km/h 37 km/h 91 % 0.25 mm 214 W/m2
09:45 12.3 °C 10.9 °C 1003.6 hPa South 19.3 km/h 41.8 km/h 91 % 0.25 mm 223 W/m2
09:50 12.4 °C 10.9 °C 1003.6 hPa South 20.9 km/h 41.8 km/h 91 % 0.25 mm 244 W/m2
09:55 12.4 °C 10.8 °C 1003.6 hPa SSW 20.9 km/h 41.8 km/h 90 % 0 mm 244 W/m2
10:00 12.5 °C 11.1 °C 1003.6 hPa SSW 22.5 km/h 45.1 km/h 91 % 0 mm 274 W/m2
10:05 12.6 °C 11.2 °C 1003.6 hPa SSW 22.5 km/h 46.7 km/h 91 % 0 mm 274 W/m2
10:10 12.6 °C 11.2 °C 1003.6 hPa SSW 22.5 km/h 46.7 km/h 91 % 0 mm 188 W/m2
10:15 12.7 °C 11.3 °C 1003.6 hPa SSW 22.5 km/h 41.8 km/h 91 % 0 mm 260 W/m2
10:20 12.7 °C 11.1 °C 1003.6 hPa SSW 22.5 km/h 43.5 km/h 90 % 0 mm 158 W/m2
10:25 12.7 °C 11.1 °C 1003.6 hPa SSW 22.5 km/h 43.5 km/h 90 % 0.25 mm 125 W/m2
10:30 12.7 °C 11.3 °C 1003.3 hPa SSW 22.5 km/h 38.6 km/h 91 % 0.25 mm 214 W/m2
10:35 12.7 °C 11.4 °C 1003.3 hPa SSW 20.9 km/h 38.6 km/h 92 % 0.51 mm 149 W/m2
10:40 12.7 °C 11.3 °C 1003.3 hPa SSW 19.3 km/h 40.2 km/h 91 % 0.51 mm 134 W/m2
10:45 12.7 °C 11.4 °C 1003.3 hPa SSW 20.9 km/h 40.2 km/h 92 % 0.51 mm 105 W/m2
10:50 12.7 °C 11.3 °C 1003.3 hPa SSW 19.3 km/h 38.6 km/h 91 % 0.51 mm 130 W/m2
10:55 12.7 °C 11.4 °C 1002.9 hPa SSW 17.7 km/h 32.2 km/h 92 % 0.51 mm 167 W/m2
11:00 12.7 °C 11.4 °C 1002.9 hPa SSW 16.1 km/h 32.2 km/h 92 % 0.51 mm 162 W/m2
11:05 12.7 °C 11.4 °C 1002.9 hPa SSW 16.1 km/h 32.2 km/h 92 % 0.76 mm 158 W/m2
11:10 12.8 °C 11.6 °C 1002.9 hPa SSW 17.7 km/h 32.2 km/h 92 % 0.76 mm 230 W/m2
11:15 12.9 °C 11.8 °C 1002.6 hPa SSW 17.7 km/h 33.8 km/h 93 % 1.02 mm 243 W/m2
11:20 12.9 °C 11.8 °C 1002.6 hPa SSW 17.7 km/h 33.8 km/h 93 % 1.02 mm 241 W/m2
11:25 13 °C 11.9 °C 1002.6 hPa South 17.7 km/h 33.8 km/h 93 % 1.02 mm 218 W/m2
11:30 13.1 °C 11.8 °C 1002.6 hPa South 16.1 km/h 35.4 km/h 92 % 1.02 mm 206 W/m2
11:35 13.1 °C 12 °C 1002.3 hPa South 17.7 km/h 35.4 km/h 93 % 1.02 mm 216 W/m2
11:40 13.2 °C 12.1 °C 1002.3 hPa SSW 16.1 km/h 35.4 km/h 93 % 1.02 mm 234 W/m2
11:45 13.3 °C 12.2 °C 1002.3 hPa SSW 16.1 km/h 35.4 km/h 93 % 1.02 mm 262 W/m2
11:50 13.3 °C 12.2 °C 1002.3 hPa South 14.5 km/h 29 km/h 93 % 1.02 mm 264 W/m2
11:55 13.4 °C 12.3 °C 1001.9 hPa SSW 16.1 km/h 29 km/h 93 % 1.02 mm 292 W/m2
12:00 13.4 °C 12.3 °C 1001.9 hPa South 17.7 km/h 38.6 km/h 93 % 1.02 mm 285 W/m2
12:05 13.4 °C 12.3 °C 1001.9 hPa South 19.3 km/h 38.6 km/h 93 % 1.02 mm 239 W/m2
12:10 13.5 °C 12.4 °C 1001.9 hPa South 17.7 km/h 32.2 km/h 93 % 1.02 mm 265 W/m2
12:15 13.6 °C 12.5 °C 1001.6 hPa South 14.5 km/h 29 km/h 93 % 1.02 mm 250 W/m2
12:20 13.6 °C 12.5 °C 1001.6 hPa SSW 16.1 km/h 37 km/h 93 % 1.02 mm 218 W/m2
12:25 13.6 °C 12.5 °C 1001.6 hPa South 17.7 km/h 37 km/h 93 % 0.76 mm 200 W/m2
12:31 13.7 °C 12.6 °C 1001.6 hPa South 17.7 km/h 30.6 km/h 93 % 1.02 mm 206 W/m2
12:36 13.7 °C 12.6 °C 1001.6 hPa SSW 17.7 km/h 30.6 km/h 93 % 0.76 mm 174 W/m2
12:41 13.6 °C 12.5 °C 1001.6 hPa SSW 17.7 km/h 30.6 km/h 93 % 1.27 mm 186 W/m2
12:46 13.6 °C 12.5 °C 1001.6 hPa SSW 16.1 km/h 30.6 km/h 93 % 1.27 mm 132 W/m2
12:51 13.7 °C 12.6 °C 1001.6 hPa SW 11.3 km/h 29 km/h 93 % 1.52 mm 130 W/m2
12:56 13.7 °C 12.6 °C 1001.6 hPa SW 11.3 km/h 24.1 km/h 93 % 2.54 mm 132 W/m2
13:01 13.6 °C 12.7 °C 1001.6 hPa SW 12.9 km/h 24.1 km/h 94 % 3.05 mm 246 W/m2
13:06 13.8 °C 12.8 °C 1001.6 hPa SW 11.3 km/h 20.9 km/h 94 % 3.05 mm 308 W/m2
13:11 13.8 °C 12.8 °C 1001.6 hPa SW 11.3 km/h 22.5 km/h 94 % 3.05 mm 339 W/m2
13:16 13.9 °C 13.1 °C 1001.2 hPa SW 11.3 km/h 22.5 km/h 95 % 2.79 mm 406 W/m2
13:21 14.1 °C 13.2 °C 1001.2 hPa SW 11.3 km/h 17.7 km/h 94 % 2.79 mm 367 W/m2
13:26 14.2 °C 13.2 °C 1001.2 hPa SW 11.3 km/h 19.3 km/h 94 % 2.79 mm 366 W/m2
13:31 14.3 °C 13.3 °C 1001.2 hPa SW 12.9 km/h 22.5 km/h 94 % 2.54 mm 434 W/m2
13:36 14.5 °C 13.6 °C 1001.2 hPa SW 14.5 km/h 24.1 km/h 94 % 2.54 mm 531 W/m2
13:41 14.6 °C 13.5 °C 1000.9 hPa SW 16.1 km/h 30.6 km/h 93 % 2.29 mm 461 W/m2
13:46 14.8 °C 13.5 °C 1000.9 hPa SSW 17.7 km/h 35.4 km/h 92 % 2.03 mm 417 W/m2
13:51 14.8 °C 13.2 °C 1000.9 hPa SW 19.3 km/h 35.4 km/h 90 % 1.52 mm 418 W/m2
13:56 14.9 °C 13.1 °C 1000.9 hPa SW 20.9 km/h 33.8 km/h 89 % 0.51 mm 294 W/m2
14:01 15 °C 13.4 °C 1000.9 hPa SW 17.7 km/h 32.2 km/h 90 % 0 mm 316 W/m2
14:06 15 °C 13.2 °C 1000.9 hPa SW 17.7 km/h 35.4 km/h 89 % 0.25 mm 431 W/m2
14:12 14.9 °C 13.3 °C 1000.6 hPa SSW 17.7 km/h 35.4 km/h 90 % 0.25 mm 316 W/m2
14:17 15 °C 13.6 °C 1000.6 hPa SSW 14.5 km/h 25.7 km/h 91 % 0.25 mm 279 W/m2
14:22 15 °C 13.6 °C 1000.6 hPa SSW 12.9 km/h 24.1 km/h 91 % 0.25 mm 243 W/m2
14:27 14.9 °C 13.4 °C 1000.6 hPa SSW 12.9 km/h 22.5 km/h 91 % 0.51 mm 262 W/m2
14:32 14.8 °C 13.3 °C 1000.2 hPa SSW 11.3 km/h 22.5 km/h 91 % 0.51 mm 295 W/m2
14:37 14.9 °C 13.8 °C 1000.2 hPa South 9.7 km/h 17.7 km/h 93 % 0.51 mm 297 W/m2
14:42 14.9 °C 13.6 °C 1000.2 hPa South 9.7 km/h 20.9 km/h 92 % 0.51 mm 417 W/m2
14:48 14.9 °C 13.6 °C 1000.2 hPa SSW 11.3 km/h 22.5 km/h 92 % 0.51 mm 274 W/m2
14:50 14.9 °C 13.8 °C 1000.2 hPa SSW 12.9 km/h 22.5 km/h 93 % 0.51 mm 174 W/m2
14:55 14.9 °C 13.6 °C 999.9 hPa South 12.9 km/h 22.5 km/h 92 % 0.76 mm 213 W/m2
15:00 14.8 °C 13.7 °C 999.9 hPa South 11.3 km/h 22.5 km/h 93 % 0.76 mm 104 W/m2
15:05 14.6 °C 13.3 °C 999.9 hPa SSW 14.5 km/h 33.8 km/h 92 % 0.76 mm 216 W/m2
15:10 14.6 °C 13.5 °C 999.9 hPa SSW 17.7 km/h 33.8 km/h 93 % 0.76 mm 204 W/m2
15:15 14.6 °C 13.5 °C 999.5 hPa SSW 14.5 km/h 30.6 km/h 93 % 0.76 mm 251 W/m2
15:20 14.6 °C 13.5 °C 999.5 hPa SSW 14.5 km/h 32.2 km/h 93 % 0.76 mm 278 W/m2
15:25 14.6 °C 13.5 °C 999.5 hPa SSW 16.1 km/h 32.2 km/h 93 % 0.51 mm 181 W/m2
15:30 14.7 °C 13.6 °C 999.5 hPa SSW 16.1 km/h 25.7 km/h 93 % 0.51 mm 125 W/m2
15:35 14.7 °C 13.6 °C 999.2 hPa SSW 16.1 km/h 29 km/h 93 % 0.51 mm 232 W/m2
15:40 14.6 °C 13.3 °C 999.2 hPa SSW 19.3 km/h 41.8 km/h 92 % 0.51 mm 255 W/m2
15:45 14.6 °C 13.3 °C 999.2 hPa SSW 22.5 km/h 43.5 km/h 92 % 0.51 mm 281 W/m2
15:50 14.4 °C 13.1 °C 999.2 hPa SSW 25.7 km/h 48.3 km/h 92 % 0.51 mm 371 W/m2
15:55 14.4 °C 13.1 °C 999.2 hPa SSW 27.4 km/h 48.3 km/h 92 % 0.25 mm 287 W/m2
16:00 14.3 °C 13 °C 999.2 hPa SSW 25.7 km/h 43.5 km/h 92 % 0.51 mm 281 W/m2
16:05 14.2 °C 12.9 °C 999.2 hPa SSW 25.7 km/h 53.1 km/h 92 % 0.25 mm 316 W/m2
16:10 14.4 °C 13.1 °C 999.2 hPa SSW 24.1 km/h 53.1 km/h 92 % 0.25 mm 429 W/m2
16:13 14.4 °C 12.9 °C 999.2 hPa SSW 22.5 km/h 51.5 km/h 91 % 0.25 mm 343 W/m2
16:18 14.6 °C 13.2 °C 999.2 hPa SSW 22.5 km/h 51.5 km/h 91 % 0.25 mm 306 W/m2
16:23 14.6 °C 13 °C 999.2 hPa SSW 20.9 km/h 41.8 km/h 90 % 0.25 mm 279 W/m2
16:28 14.5 °C 12.7 °C 998.9 hPa SSW 24.1 km/h 46.7 km/h 89 % 0.25 mm 260 W/m2
16:33 14.5 °C 12.7 °C 998.9 hPa SSW 22.5 km/h 46.7 km/h 89 % 0.25 mm 100 W/m2
16:38 14.4 °C 12.6 °C 998.9 hPa SSW 22.5 km/h 45.1 km/h 89 % 0.25 mm 86 W/m2
16:43 14.4 °C 12.8 °C 998.9 hPa SSW 20.9 km/h 45.1 km/h 90 % 0.25 mm 155 W/m2
16:48 14.3 °C 12.5 °C 998.9 hPa SSW 19.3 km/h 41.8 km/h 89 % 0.25 mm 237 W/m2
16:53 14.3 °C 12.7 °C 998.9 hPa SSW 19.3 km/h 41.8 km/h 90 % 0.25 mm 278 W/m2
16:58 14.4 °C 12.8 °C 998.5 hPa SSW 17.7 km/h 33.8 km/h 90 % 0.25 mm 243 W/m2
17:03 14.5 °C 12.7 °C 998.5 hPa SSW 17.7 km/h 37 km/h 89 % 0 mm 188 W/m2
17:09 14.5 °C 12.6 °C 998.5 hPa SSW 20.9 km/h 38.6 km/h 88 % 0 mm 111 W/m2
17:14 14.6 °C 12.4 °C 998.5 hPa SSW 19.3 km/h 38.6 km/h 87 % 0 mm 109 W/m2
17:19 14.6 °C 12.6 °C 998.5 hPa SSW 16.1 km/h 33.8 km/h 88 % 0 mm 90 W/m2
17:24 14.4 °C 12.3 °C 998.2 hPa SSW 16.1 km/h 30.6 km/h 87 % 0 mm 120 W/m2
17:29 14.4 °C 12.4 °C 998.2 hPa SSW 16.1 km/h 30.6 km/h 88 % 0 mm 84 W/m2
17:34 14.4 °C 12.4 °C 998.2 hPa South 14.5 km/h 29 km/h 88 % 0 mm 58 W/m2
17:39 14.3 °C 12 °C 998.2 hPa SSW 16.1 km/h 45.1 km/h 86 % 0 mm 100 W/m2
17:44 14.3 °C 12 °C 998.2 hPa SSW 19.3 km/h 45.1 km/h 86 % 0 mm 137 W/m2
17:49 14.3 °C 12 °C 997.9 hPa SSW 19.3 km/h 35.4 km/h 86 % 0 mm 202 W/m2
17:54 14.3 °C 12 °C 997.9 hPa SSW 17.7 km/h 35.4 km/h 86 % 0 mm 167 W/m2
17:59 14.3 °C 12.2 °C 997.9 hPa SSW 16.1 km/h 35.4 km/h 87 % 0 mm 123 W/m2
18:04 14.2 °C 11.9 °C 997.9 hPa SSW 17.7 km/h 33.8 km/h 86 % 0 mm 121 W/m2
18:09 14.2 °C 11.9 °C 997.5 hPa SSW 17.7 km/h 32.2 km/h 86 % 0 mm 113 W/m2
18:14 14.1 °C 11.8 °C 997.5 hPa SSW 16.1 km/h 30.6 km/h 86 % 0 mm 98 W/m2
18:19 14.1 °C 11.8 °C 997.5 hPa South 12.9 km/h 29 km/h 86 % 0 mm 98 W/m2
18:24 14.1 °C 11.8 °C 997.2 hPa South 12.9 km/h 29 km/h 86 % 0 mm 98 W/m2
18:29 14.1 °C 11.6 °C 997.2 hPa South 16.1 km/h 33.8 km/h 85 % 0 mm 105 W/m2
18:34 14.1 °C 11.6 °C 997.2 hPa South 17.7 km/h 33.8 km/h 85 % 0 mm 116 W/m2
18:39 14.1 °C 11.6 °C 997.2 hPa South 16.1 km/h 32.2 km/h 85 % 0 mm 97 W/m2
18:44 14 °C 11.7 °C 997.2 hPa South 17.7 km/h 38.6 km/h 86 % 0 mm 72 W/m2
18:49 13.8 °C 11.7 °C 996.8 hPa South 16.1 km/h 38.6 km/h 87 % 0.25 mm 47 W/m2
18:54 13.7 °C 11.6 °C 996.8 hPa South 16.1 km/h 35.4 km/h 87 % 0.51 mm 35 W/m2
18:59 13.4 °C 11.4 °C 996.8 hPa South 17.7 km/h 41.8 km/h 88 % 0.51 mm 26 W/m2
19:04 13.3 °C 11.5 °C 996.5 hPa South 19.3 km/h 41.8 km/h 89 % 0.51 mm 28 W/m2
19:09 13.2 °C 11.6 °C 996.5 hPa South 16.1 km/h 40.2 km/h 90 % 0.51 mm 39 W/m2
19:14 13.1 °C 11.5 °C 996.2 hPa South 12.9 km/h 22.5 km/h 90 % 0.76 mm 40 W/m2
19:19 12.9 °C 11.4 °C 996.2 hPa SSE 14.5 km/h 30.6 km/h 91 % 0.76 mm 42 W/m2
19:24 12.8 °C 11.4 °C 996.2 hPa SSE 17.7 km/h 37 km/h 91 % 0.76 mm 44 W/m2
19:29 12.8 °C 11.4 °C 996.2 hPa SSE 16.1 km/h 37 km/h 91 % 0.76 mm 49 W/m2
19:34 12.7 °C 11.3 °C 995.8 hPa SSE 16.1 km/h 30.6 km/h 91 % 0.76 mm 46 W/m2
19:39 12.7 °C 11.4 °C 995.8 hPa SSE 16.1 km/h 30.6 km/h 92 % 0.76 mm 42 W/m2
19:44 12.6 °C 11.2 °C 995.5 hPa SSE 19.3 km/h 40.2 km/h 91 % 0.76 mm 32 W/m2
19:49 12.6 °C 11.2 °C 995.5 hPa SSE 20.9 km/h 40.2 km/h 91 % 0.51 mm 25 W/m2
19:54 12.6 °C 11.3 °C 995.5 hPa SSE 19.3 km/h 41.8 km/h 92 % 0.51 mm 23 W/m2
20:00 12.6 °C 11.3 °C 995.5 hPa SSE 17.7 km/h 41.8 km/h 92 % 0.51 mm 19 W/m2
20:05 12.6 °C 11.3 °C 995.5 hPa SSE 16.1 km/h 29 km/h 92 % 0.51 mm 18 W/m2
20:10 12.5 °C 11.4 °C 995.5 hPa SSE 16.1 km/h 30.6 km/h 93 % 0.25 mm 16 W/m2
20:15 12.4 °C 11.3 °C 995.5 hPa SSE 14.5 km/h 30.6 km/h 93 % 0.51 mm 16 W/m2
20:20 12.4 °C 11.3 °C 995.1 hPa SSE 14.5 km/h 22.5 km/h 93 % 0.51 mm 12 W/m2
20:25 12.4 °C 11.3 °C 995.1 hPa SSE 14.5 km/h 22.5 km/h 93 % 0.51 mm 11 W/m2
20:30 12.4 °C 11.4 °C 995.1 hPa SSE 12.9 km/h 24.1 km/h 94 % 0.51 mm 7 W/m2
20:35 12.3 °C 11.4 °C 995.1 hPa SSE 12.9 km/h 24.1 km/h 94 % 0.51 mm 7 W/m2
20:40 12.3 °C 11.4 °C 994.8 hPa SE 14.5 km/h 24.1 km/h 94 % 0.51 mm 5 W/m2
20:45 12.4 °C 11.4 °C 994.8 hPa SSE 14.5 km/h 25.7 km/h 94 % 0.51 mm 5 W/m2
20:50 12.4 °C 11.4 °C 994.5 hPa SSE 14.5 km/h 25.7 km/h 94 % 0.51 mm 5 W/m2
20:55 12.4 °C 11.4 °C 994.5 hPa SSE 16.1 km/h 32.2 km/h 94 % 0.51 mm 0 W/m2
21:00 12.4 °C 11.4 °C 994.5 hPa SSE 17.7 km/h 32.2 km/h 94 % 0.51 mm 0 W/m2
21:05 12.3 °C 11.4 °C 994.5 hPa SE 17.7 km/h 30.6 km/h 94 % 0.25 mm 0 W/m2
21:10 12.3 °C 11.4 °C 994.1 hPa SSE 16.1 km/h 30.6 km/h 94 % 0.25 mm 0 W/m2
21:15 12.3 °C 11.4 °C 994.1 hPa SSE 16.1 km/h 30.6 km/h 94 % 0.25 mm 0 W/m2
21:20 12.3 °C 11.4 °C 994.1 hPa SSE 17.7 km/h 32.2 km/h 94 % 0.25 mm 0 W/m2
21:25 12.3 °C 11.4 °C 994.1 hPa SSE 17.7 km/h 32.2 km/h 94 % 0.25 mm 0 W/m2
21:30 12.3 °C 11.4 °C 993.8 hPa SSE 16.1 km/h 32.2 km/h 94 % 0.25 mm 0 W/m2
21:35 12.3 °C 11.4 °C 993.8 hPa SSE 16.1 km/h 32.2 km/h 94 % 0.25 mm 0 W/m2
21:40 12.2 °C 11.4 °C 993.8 hPa SSE 16.1 km/h 32.2 km/h 95 % 0.25 mm 0 W/m2
21:45 12.3 °C 11.5 °C 993.5 hPa SE 14.5 km/h 29 km/h 95 % 0.25 mm 0 W/m2
21:50 12.2 °C 11.4 °C 993.5 hPa SE 16.1 km/h 30.6 km/h 95 % 0.25 mm 0 W/m2
21:55 12.2 °C 11.4 °C 993.5 hPa SE 17.7 km/h 30.6 km/h 95 % 0.25 mm 0 W/m2
22:01 12.2 °C 11.4 °C 993.1 hPa SE 17.7 km/h 33.8 km/h 95 % 0.25 mm 0 W/m2
22:06 12.2 °C 11.4 °C 993.1 hPa SE 17.7 km/h 33.8 km/h 95 % 0.25 mm 0 W/m2
22:11 12.2 °C 11.4 °C 993.1 hPa SE 16.1 km/h 33.8 km/h 95 % 0.25 mm 0 W/m2
22:16 12.3 °C 11.5 °C 992.8 hPa SE 14.5 km/h 30.6 km/h 95 % 0 mm 0 W/m2
22:21 12.3 °C 11.5 °C 992.8 hPa SE 16.1 km/h 32.2 km/h 95 % 0 mm 0 W/m2
22:26 12.3 °C 11.5 °C 992.8 hPa SE 19.3 km/h 32.2 km/h 95 % 0 mm 0 W/m2
22:31 12.3 °C 11.5 °C 992.8 hPa SE 17.7 km/h 30.6 km/h 95 % 0 mm 0 W/m2
22:36 12.3 °C 11.5 °C 992.4 hPa SSE 16.1 km/h 25.7 km/h 95 % 0 mm 0 W/m2
22:41 12.3 °C 11.5 °C 992.4 hPa SSE 14.5 km/h 25.7 km/h 95 % 0.25 mm 0 W/m2
22:46 12.3 °C 11.5 °C 992.1 hPa SSE 14.5 km/h 33.8 km/h 95 % 0.25 mm 0 W/m2
22:51 12.3 °C 11.5 °C 992.1 hPa SSE 16.1 km/h 33.8 km/h 95 % 0.25 mm 0 W/m2
22:56 12.3 °C 11.5 °C 992.1 hPa SSE 17.7 km/h 32.2 km/h 95 % 0.25 mm 0 W/m2
23:01 12.3 °C 11.5 °C 992.1 hPa SSE 17.7 km/h 32.2 km/h 95 % 0.25 mm 0 W/m2
23:06 12.3 °C 11.5 °C 991.8 hPa SSE 17.7 km/h 30.6 km/h 95 % 0.25 mm 0 W/m2
23:11 12.2 °C 11.4 °C 991.8 hPa SSE 16.1 km/h 32.2 km/h 95 % 0.51 mm 0 W/m2
23:16 12.3 °C 11.5 °C 991.8 hPa SSE 17.7 km/h 32.2 km/h 95 % 0.51 mm 0 W/m2
23:21 12.3 °C 11.5 °C 991.4 hPa SSE 14.5 km/h 32.2 km/h 95 % 0.51 mm 0 W/m2
23:26 12.3 °C 11.5 °C 991.4 hPa SSE 14.5 km/h 24.1 km/h 95 % 0.51 mm 0 W/m2
23:31 12.3 °C 11.5 °C 991.4 hPa SSE 16.1 km/h 25.7 km/h 95 % 0.51 mm 0 W/m2
23:36 12.3 °C 11.5 °C 991.1 hPa SSE 17.7 km/h 25.7 km/h 95 % 0.51 mm 0 W/m2
23:41 12.3 °C 11.5 °C 991.1 hPa SE 16.1 km/h 29 km/h 95 % 0.25 mm 0 W/m2
23:46 12.3 °C 11.5 °C 991.1 hPa SSE 14.5 km/h 30.6 km/h 95 % 0.25 mm 0 W/m2
23:51 12.3 °C 11.5 °C 990.7 hPa SSE 14.5 km/h 30.6 km/h 95 % 0.25 mm 0 W/m2
Delerius-Weather
Compliments of Weather Underground - 2.25 mb

Data updates at regular intervals.